createdAt,value
2022-11-23T00:02:28.693Z,4.80
2022-11-23T00:07:30.451Z,4.90
2022-11-23T00:12:32.146Z,5.00
2022-11-23T00:17:34.992Z,5.10
2022-11-23T00:22:36.687Z,5.00
2022-11-23T00:27:38.361Z,5.00
2022-11-23T00:32:40.011Z,5.00
2022-11-23T00:37:41.686Z,5.10
2022-11-23T00:42:43.345Z,5.20
2022-11-23T00:47:45.009Z,5.30
2022-11-23T00:52:46.709Z,5.30
2022-11-23T00:57:48.351Z,5.40
2022-11-23T01:02:50.050Z,5.40
2022-11-23T01:07:54.636Z,5.50
2022-11-23T01:12:56.353Z,5.50
2022-11-23T01:17:58.023Z,5.60
2022-11-23T01:22:59.654Z,5.60
2022-11-23T01:28:01.299Z,5.60
2022-11-23T01:33:04.074Z,5.60
2022-11-23T01:38:06.328Z,5.60
2022-11-23T01:43:15.721Z,5.60
2022-11-23T01:48:32.405Z,5.70
2022-11-23T01:53:34.354Z,5.80
2022-11-23T01:58:39.863Z,5.90
2022-11-23T02:03:43.806Z,5.80
2022-11-23T02:08:47.031Z,5.90
2022-11-23T02:13:51.036Z,5.90
2022-11-23T02:18:53.468Z,5.90
2022-11-23T02:24:12.753Z,6.00
2022-11-23T02:29:26.868Z,5.90
2022-11-23T02:34:28.571Z,5.70
2022-11-23T02:39:36.888Z,5.60
2022-11-23T02:45:10.527Z,5.60
2022-11-23T02:50:12.207Z,5.70
2022-11-23T02:55:13.932Z,5.80
2022-11-23T03:00:16.332Z,5.70
2022-11-23T03:05:18.005Z,5.80
2022-11-23T03:10:19.875Z,5.80
2022-11-23T03:15:21.587Z,5.90
2022-11-23T03:20:23.209Z,5.90
2022-11-23T03:25:24.862Z,5.80
2022-11-23T03:30:26.472Z,5.80
2022-11-23T03:35:28.196Z,5.90
2022-11-23T03:40:29.876Z,6.00
2022-11-23T03:45:32.007Z,6.10
2022-11-23T03:50:33.806Z,6.10
2022-11-23T03:55:35.592Z,6.10
2022-11-23T04:00:37.334Z,6.10
2022-11-23T04:05:39.099Z,6.00
2022-11-23T04:10:40.792Z,5.80
2022-11-23T04:15:42.512Z,5.70
2022-11-23T04:20:44.233Z,5.60
2022-11-23T04:25:46.583Z,5.40
2022-11-23T04:30:48.267Z,5.30
2022-11-23T04:35:50.007Z,5.20
2022-11-23T04:40:51.832Z,5.20
2022-11-23T04:45:53.477Z,5.20
2022-11-23T04:50:55.905Z,5.10
2022-11-23T04:55:57.730Z,5.10
2022-11-23T05:00:59.672Z,5.00
2022-11-23T05:06:02.943Z,4.90
2022-11-23T05:11:04.830Z,4.80
2022-11-23T05:16:07.982Z,4.80
2022-11-23T05:21:09.853Z,4.70
2022-11-23T05:26:11.633Z,4.60
2022-11-23T05:31:13.337Z,4.60
2022-11-23T05:36:15.098Z,4.60
2022-11-23T05:41:16.896Z,4.50
2022-11-23T05:46:18.861Z,4.50
2022-11-23T05:51:20.527Z,4.40
2022-11-23T05:56:22.228Z,4.30
2022-11-23T06:01:24.063Z,4.30
2022-11-23T06:06:25.736Z,4.20
2022-11-23T06:11:27.396Z,4.30
2022-11-23T06:16:29.116Z,4.20
2022-11-23T06:21:30.792Z,4.40
2022-11-23T06:26:32.581Z,4.50
2022-11-23T06:31:34.434Z,4.50
2022-11-23T06:36:36.259Z,4.60
2022-11-23T06:41:38.038Z,4.50
2022-11-23T06:46:39.758Z,4.50
2022-11-23T06:51:41.422Z,4.50
2022-11-23T06:56:43.289Z,4.50
2022-11-23T07:01:45.134Z,4.60
2022-11-23T07:06:46.901Z,4.60
2022-11-23T07:11:48.606Z,4.60
2022-11-23T07:16:50.356Z,4.70
2022-11-23T07:21:52.105Z,4.70
2022-11-23T07:26:53.744Z,4.70
2022-11-23T07:31:55.955Z,4.70
2022-11-23T07:37:01.779Z,4.70
2022-11-23T07:42:31.066Z,4.80
2022-11-23T07:47:25.628Z,4.70
2022-11-23T07:52:27.378Z,4.70
2022-11-23T07:57:29.333Z,4.80
2022-11-23T08:02:31.089Z,4.80
2022-11-23T08:07:32.825Z,4.80
2022-11-23T08:12:34.566Z,4.70
2022-11-23T08:17:36.252Z,4.80
2022-11-23T08:22:37.933Z,4.80
2022-11-23T08:27:39.590Z,4.80
2022-11-23T08:32:41.349Z,4.90
2022-11-23T08:37:43.012Z,5.00
2022-11-23T08:42:44.683Z,5.10
2022-11-23T08:47:46.366Z,5.20
2022-11-23T08:52:48.242Z,5.20
2022-11-23T08:57:50.423Z,5.40
2022-11-23T09:02:52.156Z,5.50
2022-11-23T09:07:54.190Z,5.60
2022-11-23T09:12:56.112Z,5.70
2022-11-23T09:17:57.950Z,5.80
2022-11-23T09:22:59.621Z,6.00
2022-11-23T09:28:01.352Z,6.30
2022-11-23T09:33:03.122Z,6.80
2022-11-23T09:38:04.890Z,7.20
2022-11-23T09:43:24.912Z,7.50
2022-11-23T09:48:37.199Z,7.80
2022-11-23T09:54:06.150Z,8.10
2022-11-23T09:59:39.048Z,8.20
2022-11-23T10:04:40.761Z,8.30
2022-11-23T10:10:03.707Z,8.30
2022-11-23T10:15:18.570Z,8.50
2022-11-23T10:20:50.580Z,8.70
2022-11-23T10:25:53.202Z,8.90
2022-11-23T10:31:23.269Z,8.60
2022-11-23T10:36:24.958Z,8.40
2022-11-23T10:41:26.747Z,8.40
2022-11-23T10:46:34.229Z,8.40
2022-11-23T10:51:37.479Z,8.50
2022-11-23T10:56:47.877Z,8.60
2022-11-23T11:02:16.926Z,8.70
2022-11-23T11:07:28.763Z,8.70
2022-11-23T11:12:34.358Z,8.60
2022-11-23T11:17:37.891Z,8.40
2022-11-23T11:22:46.232Z,8.50
2022-11-23T11:27:52.533Z,8.60
2022-11-23T11:33:11.953Z,8.60
2022-11-23T11:38:37.367Z,8.80
2022-11-23T11:43:53.263Z,9.00
2022-11-23T11:48:59.620Z,9.30
2022-11-23T11:54:37.069Z,9.40
2022-11-23T11:59:43.644Z,9.40
2022-11-23T12:04:50.627Z,9.30
2022-11-23T12:10:00.871Z,9.40
2022-11-23T12:15:20.256Z,9.50
2022-11-23T12:20:39.564Z,9.70
2022-11-23T12:25:49.900Z,9.80
2022-11-23T12:30:54.545Z,10.00
2022-11-23T12:36:08.647Z,10.00
2022-11-23T12:41:16.387Z,9.90
2022-11-23T12:46:52.828Z,9.70
2022-11-23T12:52:00.266Z,9.60
2022-11-23T12:57:19.411Z,9.50
2022-11-23T13:02:53.044Z,9.30
2022-11-23T13:08:25.065Z,9.20
2022-11-23T13:13:50.016Z,9.20
2022-11-23T13:19:10.952Z,9.30
2022-11-23T13:24:36.873Z,9.30
2022-11-23T13:30:01.419Z,9.40
2022-11-23T13:35:04.152Z,9.50
2022-11-23T13:40:21.314Z,9.50
2022-11-23T13:45:34.444Z,9.40
2022-11-23T13:50:55.121Z,9.40
2022-11-23T13:56:15.259Z,9.50
2022-11-23T14:01:55.731Z,9.40
2022-11-23T14:07:16.347Z,9.20
2022-11-23T14:12:36.433Z,9.10
2022-11-23T14:18:01.182Z,8.80
2022-11-23T14:23:24.511Z,8.70
2022-11-23T14:28:26.174Z,8.80
2022-11-23T14:33:40.942Z,8.70
2022-11-23T14:39:03.767Z,8.70
2022-11-23T14:44:06.408Z,8.60
2022-11-23T14:49:15.003Z,8.50
2022-11-23T14:54:17.229Z,8.40
2022-11-23T14:59:29.537Z,8.30
2022-11-23T15:04:38.137Z,8.20
2022-11-23T15:09:50.059Z,8.20
2022-11-23T15:14:54.028Z,8.10
2022-11-23T15:19:56.683Z,7.90
2022-11-23T15:25:09.072Z,7.80
2022-11-23T15:30:22.073Z,7.80
2022-11-23T15:35:31.501Z,7.70
2022-11-23T15:40:37.345Z,7.60
2022-11-23T15:45:41.841Z,7.50
2022-11-23T15:50:58.940Z,7.40
2022-11-23T15:56:04.290Z,7.20
2022-11-23T16:01:12.420Z,7.10
2022-11-23T16:06:14.140Z,6.90
2022-11-23T16:11:49.626Z,6.80
2022-11-23T16:17:05.630Z,6.70
2022-11-23T16:22:16.560Z,6.60
2022-11-23T16:27:24.585Z,6.60
2022-11-23T16:32:28.954Z,6.40
2022-11-23T16:37:30.613Z,6.40
2022-11-23T16:42:32.351Z,6.40
2022-11-23T16:47:34.369Z,6.30
2022-11-23T16:52:39.203Z,6.30
2022-11-23T16:57:42.539Z,6.20
2022-11-23T17:02:44.494Z,6.20
2022-11-23T17:07:46.922Z,6.20
2022-11-23T17:12:54.606Z,6.10
2022-11-23T17:17:56.332Z,6.00
2022-11-23T17:23:01.050Z,5.90
2022-11-23T17:28:04.962Z,6.00
2022-11-23T17:33:09.002Z,6.00
2022-11-23T17:38:19.882Z,5.80
2022-11-23T17:43:21.633Z,5.70
2022-11-23T17:48:23.325Z,5.70
2022-11-23T17:53:25.692Z,5.60
2022-11-23T17:58:27.531Z,5.50
2022-11-23T18:03:29.344Z,5.70
2022-11-23T18:08:31.066Z,5.70
2022-11-23T18:13:32.753Z,5.70
2022-11-23T18:18:34.971Z,5.60
2022-11-23T18:23:37.305Z,5.50
2022-11-23T18:28:39.007Z,5.40
2022-11-23T18:33:41.357Z,5.40
2022-11-23T18:38:44.985Z,5.40
2022-11-23T18:43:46.844Z,5.40
2022-11-23T18:48:50.238Z,5.30
2022-11-23T18:53:53.178Z,5.30
2022-11-23T18:58:54.895Z,5.30
2022-11-23T19:03:56.698Z,5.30
2022-11-23T19:08:58.720Z,5.30
2022-11-23T19:14:01.540Z,5.20
2022-11-23T19:19:05.741Z,5.20
2022-11-23T19:24:09.345Z,5.10
2022-11-23T19:29:11.471Z,5.10
2022-11-23T19:34:13.337Z,5.10
2022-11-23T19:39:14.980Z,5.10
2022-11-23T19:44:16.705Z,5.10
2022-11-23T19:49:18.536Z,5.10
2022-11-23T19:54:20.237Z,4.90
2022-11-23T19:59:21.928Z,4.90
2022-11-23T20:04:23.568Z,4.90
2022-11-23T20:09:27.629Z,4.80
2022-11-23T20:14:29.336Z,4.80
2022-11-23T20:19:31.214Z,4.80
2022-11-23T20:24:33.102Z,4.70
2022-11-23T20:29:35.260Z,4.70
2022-11-23T20:34:37.281Z,4.70
2022-11-23T20:39:39.198Z,4.60
2022-11-23T20:44:40.877Z,4.60
2022-11-23T20:49:42.739Z,4.50
2022-11-23T20:54:44.654Z,4.50
2022-11-23T20:59:46.410Z,4.50
2022-11-23T21:04:48.094Z,4.40
2022-11-23T21:09:50.820Z,4.30
2022-11-23T21:14:53.200Z,4.30
2022-11-23T21:19:54.944Z,4.40
2022-11-23T21:24:56.728Z,4.30
2022-11-23T21:29:58.572Z,4.30
2022-11-23T21:35:00.866Z,4.20
2022-11-23T21:40:02.564Z,4.20
2022-11-23T21:45:04.827Z,4.30
2022-11-23T21:50:06.838Z,4.40
2022-11-23T21:55:09.317Z,4.40
2022-11-23T22:00:11.420Z,4.40
2022-11-23T22:05:15.194Z,4.40
2022-11-23T22:10:17.113Z,4.40
2022-11-23T22:15:18.904Z,4.40
2022-11-23T22:20:20.651Z,4.30
2022-11-23T22:25:22.407Z,4.20
2022-11-23T22:30:24.239Z,4.20
2022-11-23T22:35:32.149Z,4.20
2022-11-23T22:40:34.196Z,4.20
2022-11-23T22:45:35.996Z,4.20
2022-11-23T22:50:37.963Z,4.30
2022-11-23T22:55:40.204Z,4.40
2022-11-23T23:00:42.413Z,4.40
2022-11-23T23:05:52.876Z,4.30
2022-11-23T23:10:55.213Z,4.30
2022-11-23T23:16:01.769Z,4.20
2022-11-23T23:21:11.715Z,4.20
2022-11-23T23:26:15.968Z,4.10
2022-11-23T23:31:17.985Z,4.10
2022-11-23T23:36:21.727Z,4.10
2022-11-23T23:41:23.441Z,4.10
2022-11-23T23:46:25.836Z,4.10
2022-11-23T23:51:27.594Z,4.10
2022-11-23T23:56:29.841Z,4.10
